createdAt,value
2022-08-26T00:01:53.976Z,19.00
2022-08-26T00:04:23.613Z,19.00
2022-08-26T00:06:51.507Z,18.80
2022-08-26T00:09:18.622Z,18.80
2022-08-26T00:11:45.918Z,18.80
2022-08-26T00:14:14.162Z,18.90
2022-08-26T00:16:47.929Z,18.80
2022-08-26T00:19:20.620Z,18.90
2022-08-26T00:21:49.759Z,18.90
2022-08-26T00:24:19.214Z,18.90
2022-08-26T00:26:46.845Z,18.90
2022-08-26T00:29:13.898Z,18.90
2022-08-26T00:31:42.624Z,18.90
2022-08-26T00:34:12.606Z,18.90
2022-08-26T00:36:41.009Z,19.00
2022-08-26T00:39:09.063Z,19.00
2022-08-26T00:41:40.528Z,19.00
2022-08-26T00:44:10.995Z,19.10
2022-08-26T00:46:55.767Z,19.10
2022-08-26T00:49:34.922Z,19.10
2022-08-26T00:52:05.822Z,19.00
2022-08-26T00:54:46.763Z,18.90
2022-08-26T00:57:17.912Z,18.80
2022-08-26T00:59:54.333Z,18.70
2022-08-26T01:02:21.811Z,18.70
2022-08-26T01:04:57.959Z,18.60
2022-08-26T01:07:31.281Z,18.60
2022-08-26T01:10:01.384Z,18.50
2022-08-26T01:12:32.309Z,18.50
2022-08-26T01:14:59.849Z,18.50
2022-08-26T01:17:26.716Z,18.60
2022-08-26T01:20:04.836Z,18.60
2022-08-26T01:22:56.625Z,18.60
2022-08-26T01:25:26.762Z,18.50
2022-08-26T01:27:57.705Z,18.50
2022-08-26T01:30:29.409Z,18.50
2022-08-26T01:32:59.726Z,18.50
2022-08-26T01:35:28.001Z,18.40
2022-08-26T01:37:56.584Z,18.40
2022-08-26T01:40:31.954Z,18.40
2022-08-26T01:43:02.137Z,18.30
2022-08-26T01:45:33.750Z,18.30
2022-08-26T01:48:05.044Z,18.20
2022-08-26T01:50:35.169Z,18.20
2022-08-26T01:53:07.706Z,18.30
2022-08-26T01:55:39.702Z,18.30
2022-08-26T01:58:17.552Z,18.30
2022-08-26T02:00:46.526Z,18.30
2022-08-26T02:03:21.523Z,18.30
2022-08-26T02:06:00.132Z,18.30
2022-08-26T02:08:37.287Z,18.30
2022-08-26T02:11:05.016Z,18.30
2022-08-26T02:13:35.989Z,18.20
2022-08-26T02:16:03.891Z,18.20
2022-08-26T02:18:36.955Z,18.20
2022-08-26T02:21:06.634Z,18.20
2022-08-26T02:23:33.914Z,18.20
2022-08-26T02:26:14.360Z,18.10
2022-08-26T02:29:31.614Z,18.10
2022-08-26T02:31:59.097Z,18.00
2022-08-26T02:34:32.193Z,17.90
2022-08-26T02:37:03.420Z,17.80
2022-08-26T02:39:31.709Z,17.80
2022-08-26T02:41:59.201Z,17.80
2022-08-26T02:44:27.258Z,17.80
2022-08-26T02:46:54.993Z,17.80
2022-08-26T02:49:23.691Z,17.80
2022-08-26T02:51:51.995Z,17.80
2022-08-26T02:54:21.508Z,17.90
2022-08-26T02:56:49.088Z,17.80
2022-08-26T02:59:16.056Z,17.90
2022-08-26T03:01:45.012Z,17.90
2022-08-26T03:04:13.100Z,17.90
2022-08-26T03:06:41.542Z,17.90
2022-08-26T03:09:09.762Z,17.80
2022-08-26T03:11:37.604Z,17.80
2022-08-26T03:14:05.017Z,17.70
2022-08-26T03:16:35.277Z,17.70
2022-08-26T03:19:05.389Z,17.80
2022-08-26T03:21:33.982Z,17.80
2022-08-26T03:24:03.724Z,17.80
2022-08-26T03:26:31.129Z,17.70
2022-08-26T03:29:16.660Z,17.80
2022-08-26T03:31:43.619Z,17.70
2022-08-26T03:34:14.144Z,17.80
2022-08-26T03:36:42.056Z,17.70
2022-08-26T03:39:11.093Z,17.70
2022-08-26T03:41:38.694Z,17.50
2022-08-26T03:44:08.777Z,17.50
2022-08-26T03:46:36.691Z,17.40
2022-08-26T03:49:07.683Z,17.40
2022-08-26T03:51:38.716Z,17.40
2022-08-26T03:54:08.320Z,17.50
2022-08-26T03:56:36.554Z,17.60
2022-08-26T03:59:04.299Z,17.60
2022-08-26T04:01:31.828Z,17.60
2022-08-26T04:04:00.045Z,17.60
2022-08-26T04:06:38.651Z,17.60
2022-08-26T04:09:20.900Z,17.60
2022-08-26T04:11:50.331Z,17.70
2022-08-26T04:14:23.602Z,17.60
2022-08-26T04:16:52.512Z,17.60
2022-08-26T04:19:20.642Z,17.60
2022-08-26T04:21:51.918Z,17.60
2022-08-26T04:24:22.184Z,17.70
2022-08-26T04:26:49.163Z,17.70
2022-08-26T04:29:21.488Z,17.70
2022-08-26T04:31:48.645Z,17.70
2022-08-26T04:34:17.181Z,17.70
2022-08-26T04:36:45.099Z,17.60
2022-08-26T04:39:14.880Z,17.50
2022-08-26T04:41:41.738Z,17.50
2022-08-26T04:44:08.626Z,17.40
2022-08-26T04:46:36.443Z,17.40
2022-08-26T04:49:11.277Z,17.30
2022-08-26T04:51:39.282Z,17.40
2022-08-26T04:54:07.406Z,17.40
2022-08-26T04:56:40.067Z,17.50
2022-08-26T04:59:16.509Z,17.60
2022-08-26T05:01:52.858Z,17.70
2022-08-26T05:04:20.909Z,17.80
2022-08-26T05:06:49.272Z,17.80
2022-08-26T05:09:18.519Z,17.80
2022-08-26T05:11:48.414Z,17.90
2022-08-26T05:14:20.273Z,18.00
2022-08-26T05:16:47.985Z,18.00
2022-08-26T05:19:18.927Z,18.10
2022-08-26T05:21:47.699Z,18.20
2022-08-26T05:24:15.498Z,18.30
2022-08-26T05:26:44.620Z,18.40
2022-08-26T05:29:12.316Z,18.40
2022-08-26T05:31:39.190Z,18.50
2022-08-26T05:34:06.146Z,18.50
2022-08-26T05:36:35.522Z,18.60
2022-08-26T05:39:04.564Z,18.80
2022-08-26T05:41:38.305Z,19.00
2022-08-26T05:44:11.070Z,19.10
2022-08-26T05:46:40.259Z,19.30
2022-08-26T05:49:12.646Z,19.50
2022-08-26T05:51:41.812Z,19.60
2022-08-26T05:54:10.573Z,19.60
2022-08-26T05:56:39.188Z,19.70
2022-08-26T05:59:08.107Z,19.90
2022-08-26T06:01:42.798Z,20.10
2022-08-26T06:04:10.589Z,20.30
2022-08-26T06:06:41.221Z,20.30
2022-08-26T06:09:11.189Z,20.40
2022-08-26T06:11:39.159Z,20.50
2022-08-26T06:14:07.873Z,20.60
2022-08-26T06:16:38.736Z,20.70
2022-08-26T06:19:11.484Z,20.90
2022-08-26T06:21:41.834Z,20.90
2022-08-26T06:24:32.786Z,21.00
2022-08-26T06:27:08.251Z,21.00
2022-08-26T06:29:36.261Z,21.10
2022-08-26T06:32:05.391Z,21.20
2022-08-26T06:34:32.796Z,21.30
2022-08-26T06:37:06.420Z,21.30
2022-08-26T06:39:33.549Z,21.30
2022-08-26T06:42:02.686Z,21.20
2022-08-26T06:44:30.544Z,21.20
2022-08-26T06:46:59.191Z,21.10
2022-08-26T06:49:27.322Z,21.20
2022-08-26T06:51:58.842Z,21.50
2022-08-26T06:54:27.511Z,21.50
2022-08-26T06:56:56.801Z,21.70
2022-08-26T06:59:24.198Z,22.00
2022-08-26T07:01:52.225Z,22.20
2022-08-26T07:04:21.864Z,22.50
2022-08-26T07:06:52.399Z,22.50
2022-08-26T07:09:23.133Z,22.60
2022-08-26T07:11:51.798Z,22.70
2022-08-26T07:14:21.698Z,23.10
2022-08-26T07:16:50.013Z,23.30
2022-08-26T07:19:29.861Z,23.20
2022-08-26T07:22:04.447Z,23.30
2022-08-26T07:24:40.207Z,23.50
2022-08-26T07:27:14.025Z,23.70
2022-08-26T07:29:43.372Z,23.70
2022-08-26T07:32:13.637Z,24.00
2022-08-26T07:34:41.805Z,24.20
2022-08-26T07:37:09.073Z,23.90
2022-08-26T07:39:36.157Z,23.80
2022-08-26T07:42:08.049Z,23.80
2022-08-26T07:44:37.215Z,23.60
2022-08-26T07:47:04.240Z,23.80
2022-08-26T07:49:46.248Z,24.10
2022-08-26T07:52:14.828Z,23.80
2022-08-26T07:54:41.742Z,24.20
2022-08-26T07:57:09.401Z,24.10
2022-08-26T07:59:37.078Z,23.90
2022-08-26T08:02:04.768Z,23.80
2022-08-26T08:04:31.641Z,24.50
2022-08-26T08:06:58.559Z,25.20
2022-08-26T08:09:26.053Z,25.70
2022-08-26T08:11:54.263Z,26.30
2022-08-26T08:14:22.235Z,26.90
2022-08-26T08:16:51.287Z,27.40
2022-08-26T08:19:23.875Z,27.30
2022-08-26T08:21:51.920Z,27.10
2022-08-26T08:24:19.172Z,27.10
2022-08-26T08:26:46.173Z,27.20
2022-08-26T08:29:13.196Z,27.40
2022-08-26T08:31:58.301Z,27.60
2022-08-26T08:34:28.869Z,27.60
2022-08-26T08:36:57.577Z,27.50
2022-08-26T08:39:25.514Z,27.30
2022-08-26T08:42:33.473Z,27.50
2022-08-26T08:45:09.553Z,27.10
2022-08-26T08:47:45.101Z,27.10
2022-08-26T08:50:53.973Z,27.00
2022-08-26T08:53:34.676Z,27.00
2022-08-26T08:56:29.235Z,26.70
2022-08-26T08:59:24.221Z,27.10
2022-08-26T09:02:22.350Z,27.00
2022-08-26T09:05:16.932Z,27.40
2022-08-26T09:08:02.578Z,27.70
2022-08-26T09:10:53.907Z,27.50
2022-08-26T09:13:26.206Z,27.90
2022-08-26T09:16:07.483Z,28.40
2022-08-26T09:19:20.409Z,28.40
2022-08-26T09:21:59.641Z,28.60
2022-08-26T09:24:29.965Z,28.70
2022-08-26T09:26:59.069Z,27.90
2022-08-26T09:29:28.921Z,27.90
2022-08-26T09:32:24.337Z,27.50
2022-08-26T09:35:07.735Z,28.40
2022-08-26T09:37:40.459Z,28.80
2022-08-26T09:40:27.018Z,28.80
2022-08-26T09:43:13.426Z,29.10
2022-08-26T09:45:50.815Z,29.70
2022-08-26T09:48:36.876Z,29.20
2022-08-26T09:51:28.637Z,28.20
2022-08-26T09:53:59.693Z,28.90
2022-08-26T09:56:38.312Z,29.60
2022-08-26T09:59:11.447Z,29.60
2022-08-26T10:01:44.707Z,29.80
2022-08-26T10:04:19.770Z,29.70
2022-08-26T10:07:08.142Z,29.00
2022-08-26T10:09:41.945Z,29.60
2022-08-26T10:12:17.314Z,29.30
2022-08-26T10:14:52.917Z,29.60
2022-08-26T10:17:34.353Z,28.90
2022-08-26T10:20:05.870Z,28.70
2022-08-26T10:23:12.867Z,28.90
2022-08-26T10:26:05.776Z,29.40
2022-08-26T10:28:45.847Z,29.90
2022-08-26T10:31:29.221Z,30.70
2022-08-26T10:34:00.081Z,30.40
2022-08-26T10:37:15.854Z,30.60
2022-08-26T10:39:49.163Z,31.10
2022-08-26T10:42:21.371Z,31.30
2022-08-26T10:44:53.045Z,31.00
2022-08-26T10:47:33.283Z,31.30
2022-08-26T10:50:03.391Z,31.20
2022-08-26T10:53:00.241Z,31.00
2022-08-26T10:55:43.504Z,29.70
2022-08-26T10:58:42.635Z,30.00
2022-08-26T11:01:43.046Z,30.60
2022-08-26T11:04:44.411Z,29.70
2022-08-26T11:07:33.368Z,29.00
2022-08-26T11:10:02.832Z,29.50
2022-08-26T11:12:38.212Z,30.00
2022-08-26T11:15:30.878Z,30.20
2022-08-26T11:18:05.516Z,30.50
2022-08-26T11:20:44.811Z,30.90
2022-08-26T11:23:12.692Z,30.30
2022-08-26T11:25:58.891Z,31.00
2022-08-26T11:28:50.790Z,30.60
2022-08-26T11:31:18.925Z,30.80
2022-08-26T11:33:48.758Z,30.90
2022-08-26T11:36:56.891Z,30.80
2022-08-26T11:39:52.643Z,30.00
2022-08-26T11:42:42.716Z,30.40
2022-08-26T11:45:38.932Z,30.00
2022-08-26T11:48:19.280Z,28.60
2022-08-26T11:51:08.564Z,28.80
2022-08-26T11:53:42.589Z,29.10
2022-08-26T11:56:33.168Z,29.70
2022-08-26T11:59:03.418Z,29.90
2022-08-26T12:01:36.590Z,30.00
2022-08-26T12:04:07.743Z,30.30
2022-08-26T12:06:45.851Z,30.40
2022-08-26T12:09:27.401Z,30.50
2022-08-26T12:12:17.786Z,30.80
2022-08-26T12:14:45.338Z,30.50
2022-08-26T12:17:17.609Z,30.60
2022-08-26T12:19:46.469Z,30.30
2022-08-26T12:22:38.729Z,30.60
2022-08-26T12:25:11.256Z,31.30
2022-08-26T12:27:42.760Z,31.80
2022-08-26T12:30:19.990Z,32.40
2022-08-26T12:33:22.445Z,32.10
2022-08-26T12:35:56.209Z,32.10
2022-08-26T12:38:26.075Z,31.60
2022-08-26T12:40:53.237Z,32.00
2022-08-26T12:43:45.028Z,32.40
2022-08-26T12:46:17.021Z,32.30
2022-08-26T12:48:49.007Z,32.80
2022-08-26T12:51:35.261Z,33.60
2022-08-26T12:54:06.646Z,33.60
2022-08-26T12:56:39.425Z,32.50
2022-08-26T12:59:25.085Z,32.00
2022-08-26T13:01:53.439Z,32.50
2022-08-26T13:04:41.387Z,31.90
2022-08-26T13:07:23.265Z,32.30
2022-08-26T13:09:53.464Z,33.10
2022-08-26T13:12:29.426Z,34.20
2022-08-26T13:14:58.728Z,35.10
2022-08-26T13:17:27.605Z,35.40
2022-08-26T13:19:54.600Z,36.50
2022-08-26T13:22:24.320Z,36.80
2022-08-26T13:24:56.185Z,37.20
2022-08-26T13:27:26.162Z,36.70
2022-08-26T13:29:54.905Z,36.90
2022-08-26T13:32:23.786Z,37.20
2022-08-26T13:34:56.475Z,38.00
2022-08-26T13:37:24.330Z,38.50
2022-08-26T13:40:07.492Z,37.60
2022-08-26T13:42:34.708Z,37.70
2022-08-26T13:45:02.041Z,37.70
2022-08-26T13:47:28.924Z,37.80
2022-08-26T13:49:56.323Z,38.00
2022-08-26T13:52:30.102Z,37.90
2022-08-26T13:55:00.092Z,36.90
2022-08-26T13:57:28.432Z,35.40
2022-08-26T13:59:57.067Z,34.20
2022-08-26T14:02:24.100Z,33.50
2022-08-26T14:04:51.664Z,32.80
2022-08-26T14:07:18.557Z,32.10
2022-08-26T14:09:45.491Z,31.50
2022-08-26T14:12:12.340Z,31.10
2022-08-26T14:14:39.186Z,30.60
2022-08-26T14:17:06.973Z,30.50
2022-08-26T14:19:33.838Z,30.20
2022-08-26T14:22:01.684Z,30.20
2022-08-26T14:24:28.941Z,30.30
2022-08-26T14:26:55.964Z,30.50
2022-08-26T14:29:22.822Z,30.60
2022-08-26T14:31:49.709Z,31.60
2022-08-26T14:34:16.724Z,33.20
2022-08-26T14:36:43.805Z,35.50
2022-08-26T14:39:14.231Z,37.70
2022-08-26T14:41:55.840Z,39.50
2022-08-26T14:44:28.186Z,39.10
2022-08-26T14:46:55.356Z,39.90
2022-08-26T14:49:24.405Z,41.30
2022-08-26T14:51:51.292Z,41.90
2022-08-26T14:54:20.265Z,41.60
2022-08-26T14:57:04.944Z,40.50
2022-08-26T14:59:42.200Z,39.50
2022-08-26T15:02:13.920Z,39.40
2022-08-26T15:04:59.088Z,39.70
2022-08-26T15:07:25.919Z,40.10
2022-08-26T15:09:53.092Z,40.10
2022-08-26T15:12:19.968Z,40.20
2022-08-26T15:14:46.838Z,40.60
2022-08-26T15:17:13.680Z,39.90
2022-08-26T15:19:40.507Z,39.60
2022-08-26T15:22:07.366Z,39.40
2022-08-26T15:24:41.526Z,39.40
2022-08-26T15:27:09.012Z,39.50
2022-08-26T15:29:36.615Z,39.80
2022-08-26T15:32:04.467Z,39.60
2022-08-26T15:34:31.996Z,39.70
2022-08-26T15:36:58.820Z,38.40
2022-08-26T15:39:25.853Z,37.80
2022-08-26T15:41:52.699Z,36.50
2022-08-26T15:44:19.690Z,34.90
2022-08-26T15:46:49.582Z,33.10
2022-08-26T15:49:18.468Z,31.90
2022-08-26T15:51:46.959Z,30.70
2022-08-26T15:54:16.595Z,30.30
2022-08-26T15:56:44.230Z,30.10
2022-08-26T15:59:11.756Z,29.80
2022-08-26T16:01:39.685Z,29.60
2022-08-26T16:04:07.506Z,29.30
2022-08-26T16:06:37.921Z,29.10
2022-08-26T16:09:06.368Z,28.90
2022-08-26T16:11:35.862Z,28.50
2022-08-26T16:14:04.554Z,28.20
2022-08-26T16:16:32.168Z,28.30
2022-08-26T16:19:00.613Z,28.20
2022-08-26T16:21:32.208Z,28.10
2022-08-26T16:23:59.744Z,28.30
2022-08-26T16:26:32.457Z,28.40
2022-08-26T16:29:04.422Z,28.40
2022-08-26T16:31:31.340Z,28.30
2022-08-26T16:33:58.318Z,28.40
2022-08-26T16:36:25.187Z,28.50
2022-08-26T16:38:56.234Z,28.60
2022-08-26T16:41:25.769Z,28.70
2022-08-26T16:43:53.254Z,28.60
2022-08-26T16:46:22.137Z,28.40
2022-08-26T16:48:49.462Z,28.10
2022-08-26T16:51:19.054Z,27.90
2022-08-26T16:53:46.265Z,27.60
2022-08-26T16:56:19.962Z,27.40
2022-08-26T16:58:48.233Z,27.20
2022-08-26T17:01:16.605Z,27.10
2022-08-26T17:03:43.657Z,27.00
2022-08-26T17:06:10.626Z,26.90
2022-08-26T17:08:39.217Z,26.80
2022-08-26T17:11:06.960Z,26.70
2022-08-26T17:13:36.102Z,26.50
2022-08-26T17:16:05.806Z,26.40
2022-08-26T17:18:33.815Z,26.30
2022-08-26T17:21:08.441Z,26.30
2022-08-26T17:23:38.237Z,26.20
2022-08-26T17:26:05.471Z,26.10
2022-08-26T17:28:32.679Z,26.00
2022-08-26T17:30:59.849Z,25.90
2022-08-26T17:33:27.223Z,25.80
2022-08-26T17:35:55.713Z,25.60
2022-08-26T17:38:23.625Z,25.60
2022-08-26T17:40:51.375Z,25.40
2022-08-26T17:43:19.046Z,25.30
2022-08-26T17:45:46.136Z,25.10
2022-08-26T17:48:13.035Z,24.90
2022-08-26T17:50:42.342Z,24.80
2022-08-26T17:53:17.800Z,24.70
2022-08-26T17:55:50.276Z,24.60
2022-08-26T17:58:22.717Z,24.40
2022-08-26T18:00:52.244Z,24.30
2022-08-26T18:03:19.230Z,24.20
2022-08-26T18:05:52.013Z,24.10
2022-08-26T18:08:20.216Z,24.00
2022-08-26T18:10:47.645Z,23.80
2022-08-26T18:13:15.352Z,23.70
2022-08-26T18:15:44.085Z,23.60
2022-08-26T18:18:12.935Z,23.50
2022-08-26T18:20:42.231Z,23.40
2022-08-26T18:23:09.745Z,23.30
2022-08-26T18:25:41.501Z,23.20
2022-08-26T18:28:09.217Z,23.10
2022-08-26T18:30:36.300Z,23.10
2022-08-26T18:33:03.459Z,23.00
2022-08-26T18:35:30.641Z,23.00
2022-08-26T18:38:01.409Z,22.90
2022-08-26T18:40:44.020Z,22.90
2022-08-26T18:43:11.621Z,22.60
2022-08-26T18:45:38.764Z,22.50
2022-08-26T18:48:06.117Z,22.60
2022-08-26T18:50:33.348Z,22.60
2022-08-26T18:53:02.430Z,22.60
2022-08-26T18:55:29.309Z,22.60
2022-08-26T18:57:56.181Z,22.60
2022-08-26T19:00:23.722Z,22.60
2022-08-26T19:02:51.988Z,22.60
2022-08-26T19:05:22.784Z,22.50
2022-08-26T19:07:49.611Z,22.50
2022-08-26T19:10:16.591Z,22.60
2022-08-26T19:12:43.891Z,22.60
2022-08-26T19:15:11.457Z,22.50
2022-08-26T19:17:38.405Z,22.50
2022-08-26T19:20:06.498Z,22.40
2022-08-26T19:22:33.481Z,22.30
2022-08-26T19:25:01.243Z,22.30
2022-08-26T19:27:28.224Z,22.30
2022-08-26T19:29:56.359Z,22.30
2022-08-26T19:32:24.459Z,22.30
2022-08-26T19:34:54.674Z,22.30
2022-08-26T19:37:21.978Z,22.30
2022-08-26T19:39:49.060Z,22.20
2022-08-26T19:42:16.550Z,22.20
2022-08-26T19:45:02.056Z,22.20
2022-08-26T19:47:28.933Z,22.10
2022-08-26T19:49:56.347Z,22.10
2022-08-26T19:52:24.259Z,22.10
2022-08-26T19:54:57.541Z,22.10
2022-08-26T19:57:24.402Z,22.10
2022-08-26T19:59:51.225Z,22.00
2022-08-26T20:02:18.154Z,22.00
2022-08-26T20:04:45.760Z,22.00
2022-08-26T20:07:18.077Z,22.00
2022-08-26T20:09:47.004Z,22.00
2022-08-26T20:12:15.356Z,22.00
2022-08-26T20:14:42.289Z,22.00
2022-08-26T20:17:09.253Z,22.00
2022-08-26T20:19:54.993Z,22.00
2022-08-26T20:22:22.599Z,22.00
2022-08-26T20:24:49.769Z,22.00
2022-08-26T20:27:16.610Z,21.90
2022-08-26T20:29:43.569Z,21.90
2022-08-26T20:32:12.029Z,21.90
2022-08-26T20:34:39.979Z,22.00
2022-08-26T20:37:08.379Z,21.90
2022-08-26T20:39:35.723Z,21.90
2022-08-26T20:42:03.185Z,21.80
2022-08-26T20:44:30.161Z,21.80
2022-08-26T20:46:59.048Z,21.80
2022-08-26T20:49:27.996Z,21.80
2022-08-26T20:51:55.372Z,21.70
2022-08-26T20:54:28.263Z,21.80
2022-08-26T20:56:57.516Z,21.80
2022-08-26T20:59:25.485Z,21.80
2022-08-26T21:01:53.027Z,21.80
2022-08-26T21:04:24.065Z,21.70
2022-08-26T21:06:52.609Z,21.60
2022-08-26T21:09:21.915Z,21.60
2022-08-26T21:11:49.945Z,21.60
2022-08-26T21:14:17.524Z,21.60
2022-08-26T21:16:46.401Z,21.50
2022-08-26T21:19:17.886Z,21.50
2022-08-26T21:21:46.998Z,21.40
2022-08-26T21:24:14.545Z,21.40
2022-08-26T21:26:42.185Z,21.40
2022-08-26T21:29:09.819Z,21.30
2022-08-26T21:31:43.515Z,21.20
2022-08-26T21:34:13.217Z,21.20
2022-08-26T21:36:40.197Z,21.10
2022-08-26T21:39:11.434Z,21.10
2022-08-26T21:41:40.696Z,21.10
2022-08-26T21:44:08.426Z,21.00
2022-08-26T21:46:37.194Z,21.00
2022-08-26T21:49:09.921Z,20.90
2022-08-26T21:51:41.272Z,20.90
2022-08-26T21:54:11.264Z,20.90
2022-08-26T21:56:44.207Z,21.00
2022-08-26T21:59:11.794Z,20.90
2022-08-26T22:01:38.857Z,20.90
2022-08-26T22:04:08.978Z,20.80
2022-08-26T22:06:47.681Z,20.80
2022-08-26T22:09:19.692Z,20.80
2022-08-26T22:11:47.344Z,20.80
2022-08-26T22:14:16.494Z,20.80
2022-08-26T22:16:50.178Z,20.80
2022-08-26T22:19:19.912Z,20.80
2022-08-26T22:21:51.164Z,20.70
2022-08-26T22:24:19.582Z,20.60
2022-08-26T22:26:48.015Z,20.60
2022-08-26T22:29:15.997Z,20.60
2022-08-26T22:31:43.165Z,20.50
2022-08-26T22:34:15.613Z,20.40
2022-08-26T22:36:46.729Z,20.40
2022-08-26T22:39:17.342Z,20.30
2022-08-26T22:41:48.504Z,20.30
2022-08-26T22:44:17.914Z,20.30
2022-08-26T22:46:47.362Z,20.20
2022-08-26T22:49:17.989Z,20.00
2022-08-26T22:51:45.774Z,19.90
2022-08-26T22:54:14.090Z,19.80
2022-08-26T22:56:41.319Z,19.70
2022-08-26T22:59:08.967Z,19.60
2022-08-26T23:01:39.123Z,19.60
2022-08-26T23:04:07.502Z,19.50
2022-08-26T23:06:37.816Z,19.50
2022-08-26T23:09:06.583Z,19.50
2022-08-26T23:11:34.551Z,19.50
2022-08-26T23:14:02.306Z,19.40
2022-08-26T23:16:41.445Z,19.30
2022-08-26T23:19:13.586Z,19.30
2022-08-26T23:21:40.967Z,19.00
2022-08-26T23:24:09.052Z,19.00
2022-08-26T23:26:36.788Z,19.00
2022-08-26T23:29:05.351Z,19.10
2022-08-26T23:31:32.735Z,19.10
2022-08-26T23:34:19.131Z,19.00
2022-08-26T23:36:46.353Z,18.90
2022-08-26T23:39:14.626Z,18.90
2022-08-26T23:41:42.152Z,18.80
2022-08-26T23:44:08.982Z,18.70
2022-08-26T23:46:36.522Z,18.70
2022-08-26T23:49:06.097Z,18.70
2022-08-26T23:51:51.356Z,18.60
2022-08-26T23:54:19.486Z,18.60
2022-08-26T23:56:46.791Z,18.60
2022-08-26T23:59:13.689Z,18.70
